KBFI METAR and TAF | Updated Today

KBFI METAR

Boeing Field King County International Airport

Observation time: 28 min. ago

KBFI 010753Z 00000KT 10SM CLR 14/12 A3008 RMK AO2 SLP186 T01440122 402060128

Need help? Read our tutorial on how to read METARs or read the parsed version below.

Boeing Field King County International Airport (KBFI) METAR

  • Weather conditions on Sat, 01 Oct 2022 07:53:00 +0000 (28 min. ago):
  • Present conditions: Dry
  • Clouds: Clear skies
  • Visibility: 16093 meters
  • Wind: Calm
  • Temperature: 14 celsius
  • Dew point: 12 celsius
  • Pressure: 30.08 inHg
  • Remarks: AO2 SLP186 T01440122 402060128


Useful to know...

KBFI TAF

Boeing Field King County International Airport

KBFI 010536Z 0106/0206 00000KT P6SM SKC FM011000 VRB02KT P6SM SKC FM011600 34003KT P6SM FEW250
Observation time: 2:45 hr. ago
Need help? Read our tutorial on how to read TAFs or read the parsed version below.

Parsed version of TAF for Boeing Field King County International Airport (KBFI)

  • From 01 October at 06:00 UTC, to day 02 of the month at 06:00 UTC
  • Clouds: No significant changes expected
  • From day 1 of the month at 10:00 UTC
  • Clouds: No significant changes expected
  • Wind: Variable at 2
  • From day 1 of the month at 16:00 UTC
  • Clouds: A few at 7620 meters
  • Wind: 340 degrees at 3